Time;durP1;ratioP1;P1;durP2;ratioP2;P2;SDS_P1;SDS_P2;PMS_P1;PMS_P2;Temp;Humidity;BMP_temperature;BMP_pressure;BME280_temperature;BME280_humidity;BME280_pressure;Samples;Min_cycle;Max_cycle;Signal;HPM_P1;HPM_P2
2021/11/07 00:02:23;;;;;;;17.30;9.30;;;;;;;;;;5032229;28;20389;-64
2021/11/07 00:04:58;;;;;;;18.50;10.40;;;;;;;;;;5027388;28;20416;-66
2021/11/07 00:07:29;;;;;;;15.23;9.10;;;;;;;;;;5029001;28;20999;-65
2021/11/07 00:10:05;;;;;;;16.37;9.43;;;;;;;;;;5027651;28;20430;-65
2021/11/07 00:12:37;;;;;;;15.90;10.30;;;;;;;;;;5023567;28;20491;-66
2021/11/07 00:15:03;;;;;;;15.70;10.40;;;;;;;;;;5018480;28;20401;-62
2021/11/07 00:17:30;;;;;;;14.87;9.10;;;;;;;;;;5021738;28;20450;-64
2021/11/07 00:20:46;;;;;;;17.63;8.23;;;;;;;;;;5029064;28;20206;-66
2021/11/07 00:22:58;;;;;;;18.37;8.10;;;;;;;;;;5026853;28;20417;-63
2021/11/07 00:27:58;;;;;;;16.90;9.83;;;;;;;;;;5032273;28;20404;-63
2021/11/07 00:38:08;;;;;;;23.50;14.07;;;;;;;;;;5030109;28;20878;-63
2021/11/07 00:43:30;;;;;;;23.97;13.87;;;;;;;;;;5018393;28;20408;-63
2021/11/07 00:46:12;;;;;;;22.33;12.67;;;;;;;;;;5030907;28;20419;-65
2021/11/07 00:57:02;;;;;;;14.33;9.30;;;;;;;;;;5008068;28;20409;-63
2021/11/07 01:02:01;;;;;;;18.70;11.70;;;;;;;;;;5012337;28;20421;-64
2021/11/07 01:04:29;;;;;;;18.10;9.07;;;;;;;;;;5015342;28;20237;-63
2021/11/07 01:06:54;;;;;;;15.20;8.27;;;;;;;;;;5026891;28;20938;-66
2021/11/07 01:09:20;;;;;;;12.33;8.17;;;;;;;;;;5026162;28;20449;-62
2021/11/07 01:11:46;;;;;;;19.83;8.80;;;;;;;;;;5018130;28;20175;-63
2021/11/07 01:14:11;;;;;;;20.70;8.73;;;;;;;;;;5014958;28;20854;-68
2021/11/07 01:16:37;;;;;;;14.27;7.93;;;;;;;;;;5020881;28;20169;-64
2021/11/07 01:19:03;;;;;;;13.90;8.27;;;;;;;;;;5031378;28;20532;-67
2021/11/07 01:21:33;;;;;;;18.00;7.87;;;;;;;;;;5030539;28;20169;-63
2021/11/07 01:24:05;;;;;;;14.07;8.40;;;;;;;;;;5013811;28;20402;-64
2021/11/07 01:26:52;;;;;;;13.83;8.10;;;;;;;;;;5012099;28;20917;-68
2021/11/07 01:29:25;;;;;;;14.13;7.90;;;;;;;;;;5023907;28;20564;-66
2021/11/07 01:31:52;;;;;;;12.70;7.40;;;;;;;;;;5029062;28;20396;-67
2021/11/07 01:34:27;;;;;;;13.27;7.80;;;;;;;;;;5031709;28;20408;-66
2021/11/07 01:37:00;;;;;;;14.50;7.27;;;;;;;;;;5031050;28;20400;-66
2021/11/07 01:39:41;;;;;;;11.87;8.00;;;;;;;;;;5015351;28;20455;-68
2021/11/07 01:42:16;;;;;;;15.23;8.60;;;;;;;;;;5030261;28;20428;-66
2021/11/07 01:44:50;;;;;;;10.97;7.67;;;;;;;;;;5030368;28;21047;-66
2021/11/07 01:47:17;;;;;;;14.07;7.83;;;;;;;;;;5015236;28;20514;-65
2021/11/07 01:49:43;;;;;;;17.47;7.50;;;;;;;;;;5029964;28;20411;-67
2021/11/07 01:52:09;;;;;;;13.90;8.50;;;;;;;;;;5030197;28;20392;-68
2021/11/07 01:54:50;;;;;;;12.83;7.23;;;;;;;;;;5031092;28;20408;-65
2021/11/07 01:57:16;;;;;;;12.53;7.50;;;;;;;;;;5030794;28;20920;-63
2021/11/07 01:59:45;;;;;;;17.33;7.47;;;;;;;;;;5030634;28;20459;-65
2021/11/07 02:02:13;;;;;;;15.30;8.20;;;;;;;;;;5025745;28;20392;-66
2021/11/07 02:04:39;;;;;;;20.63;7.60;;;;;;;;;;5029356;28;20500;-68
2021/11/07 02:07:04;;;;;;;17.93;9.60;;;;;;;;;;5029156;28;20404;-66
2021/11/07 02:09:29;;;;;;;13.80;8.43;;;;;;;;;;5027232;28;20417;-66
2021/11/07 02:11:55;;;;;;;16.50;7.30;;;;;;;;;;5013287;28;20165;-67
2021/11/07 02:14:20;;;;;;;16.27;7.83;;;;;;;;;;5021283;28;20197;-65
2021/11/07 02:16:45;;;;;;;14.87;7.87;;;;;;;;;;5030855;28;20157;-66
2021/11/07 02:19:15;;;;;;;14.83;7.57;;;;;;;;;;5031143;28;20597;-65
2021/11/07 02:21:41;;;;;;;18.00;7.80;;;;;;;;;;5032575;28;20174;-65
2021/11/07 02:24:07;;;;;;;12.90;7.47;;;;;;;;;;5024231;28;20431;-65
2021/11/07 02:26:32;;;;;;;12.60;6.97;;;;;;;;;;5021781;28;20402;-64
2021/11/07 02:28:59;;;;;;;11.83;6.70;;;;;;;;;;5016757;28;20412;-65
2021/11/07 02:31:25;;;;;;;12.97;6.80;;;;;;;;;;5015223;28;20154;-66
2021/11/07 02:33:50;;;;;;;14.60;6.40;;;;;;;;;;5021331;28;20475;-65
2021/11/07 02:36:17;;;;;;;11.57;6.83;;;;;;;;;;5033270;28;20569;-67
2021/11/07 02:38:44;;;;;;;10.73;6.80;;;;;;;;;;5034212;28;20726;-65
2021/11/07 02:41:10;;;;;;;12.50;6.57;;;;;;;;;;5033796;28;20491;-66
2021/11/07 02:43:54;;;;;;;12.10;7.23;;;;;;;;;;5032519;28;20392;-65
2021/11/07 02:46:20;;;;;;;10.30;6.63;;;;;;;;;;5034296;28;20166;-66
2021/11/07 02:48:47;;;;;;;13.70;7.10;;;;;;;;;;5033221;28;20412;-65
2021/11/07 02:51:12;;;;;;;14.00;7.00;;;;;;;;;;5017195;28;20173;-64
2021/11/07 02:53:39;;;;;;;17.53;7.00;;;;;;;;;;5014450;28;20409;-64
2021/11/07 02:56:05;;;;;;;18.43;6.37;;;;;;;;;;5020307;28;20177;-64
2021/11/07 02:58:31;;;;;;;12.73;6.97;;;;;;;;;;5034524;28;20404;-65
2021/11/07 03:00:57;;;;;;;14.77;7.00;;;;;;;;;;5033841;28;20217;-65
2021/11/07 03:03:22;;;;;;;10.73;6.07;;;;;;;;;;5020227;28;20405;-63
2021/11/07 03:05:48;;;;;;;10.77;6.53;;;;;;;;;;5033182;28;20193;-64
2021/11/07 03:08:13;;;;;;;10.07;6.03;;;;;;;;;;5021161;28;20413;-66
2021/11/07 03:10:39;;;;;;;9.00;5.10;;;;;;;;;;5027882;28;20165;-63
2021/11/07 03:13:12;;;;;;;10.93;6.03;;;;;;;;;;5032651;28;20169;-66
2021/11/07 03:15:40;;;;;;;10.93;5.77;;;;;;;;;;5033965;28;20158;-65
2021/11/07 03:18:05;;;;;;;14.10;6.80;;;;;;;;;;5033402;28;20443;-66
2021/11/07 03:20:31;;;;;;;12.37;6.27;;;;;;;;;;5031738;28;20899;-64
2021/11/07 03:22:56;;;;;;;10.60;6.10;;;;;;;;;;5025446;28;20181;-65
2021/11/07 03:25:23;;;;;;;15.10;7.30;;;;;;;;;;5013830;28;20157;-67
2021/11/07 03:27:49;;;;;;;11.10;6.03;;;;;;;;;;5016359;28;20217;-65
2021/11/07 03:30:49;;;;;;;9.80;6.27;;;;;;;;;;5013627;28;20398;-66
2021/11/07 03:35:41;;;;;;;13.50;7.20;;;;;;;;;;5014048;28;20440;-62
2021/11/07 03:38:06;;;;;;;13.33;6.40;;;;;;;;;;5029243;28;20448;-66
2021/11/07 03:40:33;;;;;;;15.60;7.00;;;;;;;;;;5031927;28;20483;-65
2021/11/07 03:42:59;;;;;;;13.80;5.57;;;;;;;;;;5021080;28;20170;-64
2021/11/07 03:45:24;;;;;;;10.20;6.03;;;;;;;;;;5013787;28;20441;-66
2021/11/07 03:47:50;;;;;;;17.60;6.03;;;;;;;;;;5027033;28;20541;-65
2021/11/07 03:50:16;;;;;;;9.60;5.90;;;;;;;;;;5030056;28;20170;-64
2021/11/07 03:52:41;;;;;;;12.20;7.20;;;;;;;;;;5019251;28;20160;-64
2021/11/07 03:55:07;;;;;;;12.70;6.63;;;;;;;;;;5013449;28;20174;-64
2021/11/07 03:57:33;;;;;;;10.07;5.83;;;;;;;;;;5023385;28;20180;-65
2021/11/07 03:59:58;;;;;;;10.20;6.13;;;;;;;;;;5012971;28;20484;-64
2021/11/07 04:02:23;;;;;;;11.40;6.30;;;;;;;;;;5026463;28;20164;-66
2021/11/07 04:04:48;;;;;;;11.60;6.20;;;;;;;;;;5017999;28;20170;-66
2021/11/07 04:07:14;;;;;;;11.60;6.13;;;;;;;;;;5031631;28;20616;-66
2021/11/07 04:09:40;;;;;;;15.63;6.67;;;;;;;;;;5018938;28;20225;-64
2021/11/07 04:12:05;;;;;;;16.23;7.33;;;;;;;;;;5027160;28;20258;-67
2021/11/07 04:14:34;;;;;;;11.93;6.10;;;;;;;;;;5032928;28;20160;-66
2021/11/07 04:17:06;;;;;;;8.07;5.30;;;;;;;;;;5031577;28;20807;-66
2021/11/07 04:19:32;;;;;;;9.10;5.97;;;;;;;;;;5032550;28;20543;-65
2021/11/07 04:22:02;;;;;;;11.03;6.70;;;;;;;;;;5014233;28;20802;-64
2021/11/07 04:24:28;;;;;;;13.37;7.30;;;;;;;;;;5017773;28;20459;-64
2021/11/07 04:26:53;;;;;;;13.60;6.17;;;;;;;;;;5027328;28;20470;-64
2021/11/07 04:29:19;;;;;;;12.10;6.30;;;;;;;;;;5016496;28;20169;-66
2021/11/07 04:31:44;;;;;;;12.77;6.80;;;;;;;;;;5013002;28;20229;-63
2021/11/07 04:34:09;;;;;;;11.60;7.03;;;;;;;;;;5012626;28;20174;-65
2021/11/07 04:36:34;;;;;;;11.57;5.83;;;;;;;;;;5013073;28;20185;-66
2021/11/07 04:39:00;;;;;;;15.83;6.97;;;;;;;;;;5012922;28;20206;-66
2021/11/07 04:41:27;;;;;;;15.73;6.90;;;;;;;;;;5013282;28;20209;-65
2021/11/07 04:43:52;;;;;;;10.40;6.80;;;;;;;;;;5022482;28;20588;-67
2021/11/07 04:46:17;;;;;;;12.10;6.90;;;;;;;;;;5013497;28;20412;-66
2021/11/07 04:48:44;;;;;;;9.53;6.37;;;;;;;;;;5027462;28;20178;-65
2021/11/07 04:51:09;;;;;;;11.60;6.73;;;;;;;;;;5015423;28;20162;-67
2021/11/07 04:53:35;;;;;;;19.97;7.17;;;;;;;;;;5019198;28;20499;-65
2021/11/07 04:56:00;;;;;;;11.30;6.07;;;;;;;;;;5013392;28;20159;-68
2021/11/07 04:58:25;;;;;;;11.00;6.10;;;;;;;;;;5021028;28;20173;-65
2021/11/07 05:00:51;;;;;;;11.97;7.27;;;;;;;;;;5013892;28;20273;-63
2021/11/07 05:03:16;;;;;;;18.00;7.30;;;;;;;;;;5012437;28;20277;-65
2021/11/07 05:05:42;;;;;;;15.17;7.03;;;;;;;;;;5030677;28;20197;-66
2021/11/07 05:08:07;;;;;;;13.77;6.50;;;;;;;;;;5031511;28;20192;-66
2021/11/07 05:10:33;;;;;;;11.90;7.10;;;;;;;;;;5030193;28;20212;-64
2021/11/07 05:12:58;;;;;;;17.67;8.23;;;;;;;;;;5026878;28;20197;-68
2021/11/07 05:15:23;;;;;;;17.60;8.00;;;;;;;;;;5018058;28;20172;-68
2021/11/07 05:17:49;;;;;;;11.30;6.57;;;;;;;;;;5029808;28;20693;-64
2021/11/07 05:20:14;;;;;;;13.37;6.93;;;;;;;;;;5018423;28;20204;-66
2021/11/07 05:22:40;;;;;;;13.97;7.80;;;;;;;;;;5026325;28;20170;-67
2021/11/07 05:25:06;;;;;;;14.20;7.83;;;;;;;;;;5011701;28;20178;-66
2021/11/07 05:27:33;;;;;;;13.30;7.10;;;;;;;;;;5016326;28;20159;-64
2021/11/07 05:29:58;;;;;;;13.93;7.47;;;;;;;;;;5014940;28;20941;-66
2021/11/07 05:32:23;;;;;;;19.03;7.37;;;;;;;;;;5026535;28;20402;-64
2021/11/07 05:34:48;;;;;;;19.23;8.70;;;;;;;;;;5022934;28;20172;-65
2021/11/07 05:37:14;;;;;;;13.77;7.60;;;;;;;;;;5013550;28;20210;-65
2021/11/07 05:39:39;;;;;;;12.07;7.30;;;;;;;;;;5011951;28;20274;-66
2021/11/07 05:42:05;;;;;;;16.13;8.50;;;;;;;;;;5023860;28;20170;-66
2021/11/07 05:44:30;;;;;;;13.23;8.23;;;;;;;;;;5020664;28;20162;-63
2021/11/07 05:46:56;;;;;;;12.57;6.67;;;;;;;;;;5020288;28;20633;-65
2021/11/07 05:49:21;;;;;;;13.63;7.87;;;;;;;;;;5028076;28;20169;-66
2021/11/07 05:51:47;;;;;;;23.63;9.00;;;;;;;;;;5020806;28;20668;-67
2021/11/07 05:54:12;;;;;;;12.50;7.63;;;;;;;;;;5018202;28;20211;-65
2021/11/07 05:56:38;;;;;;;16.50;9.23;;;;;;;;;;5019679;28;20166;-62
2021/11/07 05:59:04;;;;;;;15.33;7.73;;;;;;;;;;5026883;28;20163;-65
2021/11/07 06:01:29;;;;;;;15.20;8.67;;;;;;;;;;5029577;28;20522;-65
2021/11/07 06:03:55;;;;;;;13.73;7.83;;;;;;;;;;5034480;28;20686;-66
2021/11/07 06:06:20;;;;;;;14.63;8.40;;;;;;;;;;5021033;28;20162;-63
2021/11/07 06:08:46;;;;;;;18.27;8.77;;;;;;;;;;5032038;28;20157;-67
2021/11/07 06:11:11;;;;;;;16.43;7.83;;;;;;;;;;5030747;28;20166;-66
2021/11/07 06:13:37;;;;;;;18.47;8.40;;;;;;;;;;5017997;28;20636;-66
2021/11/07 06:16:02;;;;;;;13.27;7.83;;;;;;;;;;5028318;28;20211;-68
2021/11/07 06:18:28;;;;;;;14.37;8.23;;;;;;;;;;5025542;28;20186;-67
2021/11/07 06:20:55;;;;;;;14.23;8.10;;;;;;;;;;5017969;28;20637;-64
2021/11/07 06:23:20;;;;;;;14.57;7.27;;;;;;;;;;5027498;28;20402;-67
2021/11/07 06:25:46;;;;;;;18.70;8.53;;;;;;;;;;5014953;28;20425;-66
2021/11/07 06:28:11;;;;;;;13.10;8.13;;;;;;;;;;5015171;28;20165;-66
2021/11/07 06:30:37;;;;;;;12.93;7.57;;;;;;;;;;5026895;28;20261;-65
2021/11/07 06:33:02;;;;;;;16.90;8.63;;;;;;;;;;5034240;28;20538;-65
2021/11/07 06:35:28;;;;;;;14.87;8.70;;;;;;;;;;5025345;28;20675;-64
2021/11/07 06:37:54;;;;;;;17.53;10.03;;;;;;;;;;5016883;28;20511;-64
2021/11/07 06:40:20;;;;;;;14.30;8.07;;;;;;;;;;5033869;28;20586;-65
2021/11/07 06:42:45;;;;;;;12.80;7.90;;;;;;;;;;5024706;28;21896;-63
2021/11/07 06:45:11;;;;;;;14.83;8.80;;;;;;;;;;5021334;28;20150;-64
2021/11/07 06:47:37;;;;;;;19.17;8.67;;;;;;;;;;5025131;28;20165;-65
2021/11/07 06:50:04;;;;;;;17.13;9.17;;;;;;;;;;5014412;28;20552;-63
2021/11/07 06:52:29;;;;;;;19.57;9.07;;;;;;;;;;5014599;28;20395;-61
2021/11/07 06:54:54;;;;;;;15.17;8.13;;;;;;;;;;5019245;28;20415;-66
2021/11/07 06:57:20;;;;;;;15.70;7.70;;;;;;;;;;5026565;28;20171;-66
2021/11/07 06:59:46;;;;;;;16.10;8.57;;;;;;;;;;5034138;28;20691;-65
2021/11/07 07:02:12;;;;;;;16.93;10.00;;;;;;;;;;5032705;28;20169;-66
2021/11/07 07:04:38;;;;;;;15.43;7.83;;;;;;;;;;5034086;28;20377;-64
2021/11/07 07:07:03;;;;;;;14.13;8.70;;;;;;;;;;5019375;28;20159;-65
2021/11/07 07:09:33;;;;;;;18.40;9.17;;;;;;;;;;5018960;28;20404;-65
2021/11/07 07:12:13;;;;;;;18.90;9.13;;;;;;;;;;5028610;28;20161;-68
2021/11/07 07:14:50;;;;;;;15.07;8.87;;;;;;;;;;5014193;28;20443;-65
2021/11/07 07:17:23;;;;;;;17.93;9.70;;;;;;;;;;5013961;28;20434;-63
2021/11/07 07:20:18;;;;;;;15.13;9.57;;;;;;;;;;5018553;28;20460;-62
2021/11/07 07:33:25;;;;;;;18.40;9.03;;;;;;;;;;5013925;28;20730;-63
2021/11/07 07:35:51;;;;;;;15.17;8.70;;;;;;;;;;5013691;28;20792;-66
2021/11/07 07:38:17;;;;;;;15.90;9.20;;;;;;;;;;5013365;28;20476;-64
2021/11/07 07:40:42;;;;;;;18.00;9.90;;;;;;;;;;5031348;28;20489;-66
2021/11/07 07:43:08;;;;;;;15.87;8.73;;;;;;;;;;5033496;28;20181;-62
2021/11/07 07:45:33;;;;;;;17.83;8.60;;;;;;;;;;5033115;28;20256;-65
2021/11/07 07:48:00;;;;;;;16.70;8.83;;;;;;;;;;5031692;28;20546;-66
2021/11/07 07:50:25;;;;;;;13.90;9.00;;;;;;;;;;5028610;28;20309;-62
2021/11/07 07:52:51;;;;;;;13.70;8.17;;;;;;;;;;5013338;28;20381;-65
2021/11/07 07:55:17;;;;;;;17.90;9.27;;;;;;;;;;5015159;28;20323;-65
2021/11/07 07:57:45;;;;;;;15.30;9.10;;;;;;;;;;5021383;28;20228;-66
2021/11/07 08:00:11;;;;;;;18.87;8.63;;;;;;;;;;5029301;28;20196;-66
2021/11/07 08:02:37;;;;;;;13.70;8.13;;;;;;;;;;5033323;28;20812;-62
2021/11/07 08:05:02;;;;;;;17.50;10.10;;;;;;;;;;5032806;28;20405;-61
2021/11/07 08:07:28;;;;;;;15.00;8.40;;;;;;;;;;5031679;28;20212;-64
2021/11/07 08:09:54;;;;;;;19.43;10.00;;;;;;;;;;5030697;28;20231;-63
2021/11/07 08:12:19;;;;;;;14.47;9.20;;;;;;;;;;5033011;28;20205;-64
2021/11/07 08:14:45;;;;;;;14.63;8.90;;;;;;;;;;5032056;28;21055;-63
2021/11/07 08:17:10;;;;;;;13.90;8.20;;;;;;;;;;5029709;28;20192;-66
2021/11/07 08:19:35;;;;;;;16.80;8.10;;;;;;;;;;5029417;28;20185;-63
2021/11/07 08:22:01;;;;;;;15.80;8.57;;;;;;;;;;5029500;28;20173;-63
2021/11/07 08:24:26;;;;;;;16.57;8.33;;;;;;;;;;5014495;28;20257;-64
2021/11/07 08:26:52;;;;;;;14.70;9.40;;;;;;;;;;5012075;28;20186;-64
2021/11/07 08:29:18;;;;;;;56.67;29.50;;;;;;;;;;5020485;28;20150;-64
2021/11/07 08:31:47;;;;;;;21.93;12.17;;;;;;;;;;5023109;28;20935;-66
2021/11/07 08:34:12;;;;;;;31.57;15.97;;;;;;;;;;5011782;28;20151;-66
2021/11/07 08:37:03;;;;;;;21.83;13.80;;;;;;;;;;5011704;28;20496;-66
2021/11/07 08:39:28;;;;;;;12.43;7.73;;;;;;;;;;5012156;28;20182;-61
2021/11/07 08:41:58;;;;;;;14.37;8.23;;;;;;;;;;5026784;28;20401;-64
2021/11/07 09:00:31;;;;;;;14.27;6.97;;;;;;;;;;5030829;28;20197;-65
2021/11/07 09:05:59;;;;;;;13.20;7.27;;;;;;;;;;5024904;28;20419;-63
2021/11/07 09:08:26;;;;;;;16.30;8.13;;;;;;;;;;5025409;28;20915;-62
2021/11/07 09:10:52;;;;;;;20.23;8.17;;;;;;;;;;5023217;28;20799;-62
2021/11/07 09:13:18;;;;;;;13.50;8.23;;;;;;;;;;5046781;28;20393;-62
2021/11/07 09:15:44;;;;;;;15.13;7.80;;;;;;;;;;5028354;28;20405;-62
2021/11/07 09:18:10;;;;;;;13.27;7.87;;;;;;;;;;5015331;28;20240;-62
2021/11/07 09:20:57;;;;;;;15.20;8.43;;;;;;;;;;5026873;28;20468;-63
2021/11/07 09:26:09;;;;;;;14.70;6.93;;;;;;;;;;5026936;28;20476;-65
2021/11/07 09:28:45;;;;;;;12.00;7.07;;;;;;;;;;5028433;28;20157;-62
2021/11/07 09:31:17;;;;;;;13.53;8.47;;;;;;;;;;5016959;28;20488;-64
2021/11/07 09:33:53;;;;;;;11.87;7.50;;;;;;;;;;5030084;28;20372;-64
2021/11/07 09:36:27;;;;;;;14.90;8.13;;;;;;;;;;5023688;28;20432;-65
2021/11/07 09:39:06;;;;;;;12.40;7.70;;;;;;;;;;5017331;28;20919;-64
2021/11/07 09:44:07;;;;;;;11.23;7.17;;;;;;;;;;5018472;28;20941;-65
2021/11/07 09:49:31;;;;;;;11.50;7.43;;;;;;;;;;5029133;28;20428;-65
2021/11/07 09:52:12;;;;;;;12.00;7.27;;;;;;;;;;5030763;28;20384;-64
2021/11/07 09:54:40;;;;;;;17.43;7.10;;;;;;;;;;5030797;28;20396;-66
2021/11/07 09:57:06;;;;;;;14.67;8.20;;;;;;;;;;5024749;28;20435;-65
2021/11/07 09:59:32;;;;;;;14.20;7.87;;;;;;;;;;5030807;28;20472;-68
2021/11/07 10:01:58;;;;;;;15.13;8.03;;;;;;;;;;5030846;28;20157;-63
2021/11/07 10:04:25;;;;;;;12.70;7.27;;;;;;;;;;5028253;28;20408;-67
2021/11/07 10:06:56;;;;;;;14.70;7.63;;;;;;;;;;5013063;28;20813;-64
2021/11/07 10:09:28;;;;;;;11.10;6.90;;;;;;;;;;5026286;28;20396;-64
2021/11/07 10:12:02;;;;;;;12.63;7.70;;;;;;;;;;5018633;28;20504;-63
2021/11/07 10:14:38;;;;;;;13.20;7.13;;;;;;;;;;5010966;28;20397;-66
2021/11/07 10:17:20;;;;;;;13.10;7.07;;;;;;;;;;5018210;28;20424;-64
2021/11/07 10:19:55;;;;;;;12.63;6.73;;;;;;;;;;5020038;28;20865;-66
2021/11/07 10:22:21;;;;;;;16.57;8.03;;;;;;;;;;5018846;28;20423;-63
2021/11/07 10:24:53;;;;;;;13.70;6.43;;;;;;;;;;5024956;28;20405;-66
2021/11/07 10:27:18;;;;;;;14.23;7.50;;;;;;;;;;5012138;28;20429;-65
2021/11/07 10:29:52;;;;;;;11.23;6.90;;;;;;;;;;5015352;28;20867;-66
2021/11/07 10:32:24;;;;;;;13.40;8.20;;;;;;;;;;5015295;28;20241;-70
2021/11/07 10:35:27;;;;;;;15.30;8.60;;;;;;;;;;5019691;28;20925;-65
2021/11/07 10:43:21;;;;;;;11.83;6.80;;;;;;;;;;5024824;28;20253;-76
2021/11/07 10:54:16;;;;;;;12.33;7.50;;;;;;;;;;5016567;28;20504;-75
2021/11/07 10:56:43;;;;;;;11.70;7.27;;;;;;;;;;5022464;28;20392;-76
2021/11/07 10:59:16;;;;;;;10.07;6.50;;;;;;;;;;5033549;28;20446;-75
2021/11/07 11:01:44;;;;;;;12.50;7.40;;;;;;;;;;5028295;28;20510;-77
2021/11/07 11:04:09;;;;;;;12.60;7.63;;;;;;;;;;5034161;28;20420;-73
2021/11/07 11:06:34;;;;;;;17.10;7.83;;;;;;;;;;5033427;28;20480;-78
2021/11/07 11:09:10;;;;;;;17.20;7.80;;;;;;;;;;5033822;28;20158;-75
2021/11/07 11:11:45;;;;;;;17.50;8.17;;;;;;;;;;5030926;28;20146;-77
2021/11/07 11:14:28;;;;;;;13.20;7.37;;;;;;;;;;5030711;28;20546;-78
2021/11/07 11:25:07;;;;;;;13.27;7.27;;;;;;;;;;5033788;28;20567;-69
2021/11/07 11:30:32;;;;;;;16.70;7.73;;;;;;;;;;5012747;28;20813;-77
2021/11/07 11:33:03;;;;;;;11.50;6.63;;;;;;;;;;5012650;28;20380;-70
2021/11/07 11:35:39;;;;;;;13.70;8.10;;;;;;;;;;5013824;28;20432;-73
2021/11/07 11:43:13;;;;;;;12.77;6.80;;;;;;;;;;5019960;28;20402;-73
2021/11/07 11:45:45;;;;;;;11.80;6.60;;;;;;;;;;5015886;28;20343;-66
2021/11/07 11:48:37;;;;;;;12.80;8.10;;;;;;;;;;5032764;28;20388;-73
2021/11/07 11:53:45;;;;;;;14.83;8.37;;;;;;;;;;5016400;28;20409;-73
2021/11/07 11:56:36;;;;;;;14.23;7.13;;;;;;;;;;5012772;28;20485;-72
2021/11/07 11:59:06;;;;;;;12.17;7.07;;;;;;;;;;5012608;28;21028;-71
2021/11/07 12:01:39;;;;;;;14.10;8.80;;;;;;;;;;5020084;28;20486;-74
2021/11/07 12:07:22;;;;;;;17.30;7.50;;;;;;;;;;5018636;28;20441;-67
2021/11/07 12:09:56;;;;;;;16.13;7.10;;;;;;;;;;5032330;28;20898;-73
2021/11/07 12:12:31;;;;;;;13.97;6.60;;;;;;;;;;5032276;28;20764;-72
2021/11/07 12:15:00;;;;;;;12.53;7.20;;;;;;;;;;5030533;28;20785;-70
2021/11/07 12:17:26;;;;;;;14.13;6.63;;;;;;;;;;5031761;28;20500;-68
2021/11/07 12:19:52;;;;;;;15.27;6.57;;;;;;;;;;5032168;28;20467;-69
2021/11/07 12:22:21;;;;;;;12.10;6.67;;;;;;;;;;5031930;28;20436;-72
2021/11/07 12:24:46;;;;;;;15.13;6.87;;;;;;;;;;5028577;28;20208;-71
2021/11/07 12:27:37;;;;;;;12.30;6.93;;;;;;;;;;5012403;28;20504;-73
2021/11/07 12:30:13;;;;;;;11.80;6.30;;;;;;;;;;5013998;28;20663;-68
2021/11/07 12:32:40;;;;;;;11.47;6.60;;;;;;;;;;5012035;28;20393;-72
2021/11/07 12:35:16;;;;;;;13.80;7.57;;;;;;;;;;5011861;28;20910;-71
2021/11/07 12:40:47;;;;;;;13.97;7.77;;;;;;;;;;5029894;28;20463;-69
2021/11/07 12:43:15;;;;;;;14.20;6.93;;;;;;;;;;5026255;28;20405;-73
2021/11/07 12:45:45;;;;;;;12.00;7.50;;;;;;;;;;5029860;28;20498;-73
2021/11/07 12:48:13;;;;;;;13.07;8.27;;;;;;;;;;5029948;28;20451;-71
2021/11/07 12:50:59;;;;;;;12.60;6.73;;;;;;;;;;5031681;28;20408;-72
2021/11/07 12:53:25;;;;;;;27.87;9.80;;;;;;;;;;5031212;28;20369;-71
2021/11/07 12:55:51;;;;;;;14.10;7.67;;;;;;;;;;5031221;28;20385;-71
2021/11/07 12:58:17;;;;;;;11.67;7.50;;;;;;;;;;5031229;28;20431;-65
2021/11/07 13:00:42;;;;;;;11.07;6.87;;;;;;;;;;5031140;28;20236;-72
2021/11/07 13:03:09;;;;;;;15.20;8.13;;;;;;;;;;5021160;28;20410;-72
2021/11/07 13:05:38;;;;;;;14.70;9.20;;;;;;;;;;5011366;28;20521;-73
2021/11/07 13:08:07;;;;;;;13.30;7.60;;;;;;;;;;5012001;28;20927;-72
2021/11/07 13:13:16;;;;;;;11.73;7.40;;;;;;;;;;5011753;28;20444;-72
2021/11/07 13:21:34;;;;;;;15.00;9.67;;;;;;;;;;5012068;28;20301;-70
2021/11/07 13:29:30;;;;;;;13.27;7.97;;;;;;;;;;5010337;28;20829;-77
2021/11/07 13:32:18;;;;;;;12.63;9.00;;;;;;;;;;5011208;28;20900;-73
2021/11/07 13:34:52;;;;;;;13.40;7.80;;;;;;;;;;5011248;28;20814;-69
2021/11/07 13:37:21;;;;;;;13.43;9.03;;;;;;;;;;5011217;28;20911;-70
2021/11/07 13:39:47;;;;;;;15.90;8.20;;;;;;;;;;5024525;28;20451;-73
2021/11/07 13:42:14;;;;;;;17.30;9.20;;;;;;;;;;5024262;28;20416;-73
2021/11/07 13:44:42;;;;;;;15.23;7.57;;;;;;;;;;5030771;28;20150;-71
2021/11/07 13:47:08;;;;;;;16.43;7.57;;;;;;;;;;5031265;28;20791;-73
2021/11/07 13:49:33;;;;;;;12.17;7.03;;;;;;;;;;5014094;28;20405;-72
2021/11/07 13:52:03;;;;;;;18.50;7.87;;;;;;;;;;5011547;28;20301;-73
2021/11/07 13:54:29;;;;;;;15.80;8.57;;;;;;;;;;5011117;28;20187;-73
2021/11/07 13:56:55;;;;;;;13.67;7.77;;;;;;;;;;5027761;28;20921;-66
2021/11/07 13:59:30;;;;;;;10.27;7.10;;;;;;;;;;5014869;28;20413;-66
2021/11/07 14:01:56;;;;;;;14.87;7.10;;;;;;;;;;5021654;28;20276;-71
2021/11/07 14:04:21;;;;;;;17.00;7.73;;;;;;;;;;5024456;28;20457;-73
2021/11/07 14:06:47;;;;;;;14.67;8.17;;;;;;;;;;5011438;28;20643;-67
2021/11/07 14:09:12;;;;;;;16.73;6.50;;;;;;;;;;5010772;28;20253;-72
2021/11/07 14:11:39;;;;;;;13.53;7.40;;;;;;;;;;5014225;28;20172;-71
2021/11/07 14:14:08;;;;;;;12.20;7.63;;;;;;;;;;5030775;28;20248;-70
2021/11/07 14:16:36;;;;;;;18.13;8.00;;;;;;;;;;5029532;28;20802;-71
2021/11/07 14:19:07;;;;;;;12.37;7.53;;;;;;;;;;5025496;28;21151;-69
2021/11/07 14:21:36;;;;;;;10.90;6.30;;;;;;;;;;5034059;28;20586;-73
2021/11/07 14:26:37;;;;;;;11.53;6.60;;;;;;;;;;5032463;28;20420;-71
2021/11/07 14:29:14;;;;;;;13.33;7.53;;;;;;;;;;5034672;28;20373;-72
2021/11/07 14:34:44;;;;;;;10.57;6.10;;;;;;;;;;5033989;28;20976;-73
2021/11/07 14:40:14;;;;;;;18.47;7.33;;;;;;;;;;5033140;28;20863;-74
2021/11/07 14:43:05;;;;;;;17.10;7.20;;;;;;;;;;5026027;28;20393;-72
2021/11/07 14:50:56;;;;;;;13.83;7.80;;;;;;;;;;5033777;28;20418;-74
2021/11/07 14:58:50;;;;;;;14.77;7.17;;;;;;;;;;5026672;28;20155;-72
2021/11/07 15:03:50;;;;;;;11.23;6.30;;;;;;;;;;5033655;28;20432;-76
2021/11/07 15:08:56;;;;;;;11.90;6.90;;;;;;;;;;5028513;28;20400;-71
2021/11/07 15:23:54;;;;;;;15.33;8.53;;;;;;;;;;5027221;28;20435;-74
2021/11/07 15:26:46;;;;;;;15.90;8.20;;;;;;;;;;5018278;28;20914;-71
2021/11/07 15:29:19;;;;;;;13.30;7.77;;;;;;;;;;5023096;28;20934;-68
2021/11/07 15:31:45;;;;;;;13.67;7.47;;;;;;;;;;5016407;28;20436;-62
2021/11/07 15:34:12;;;;;;;9.57;6.20;;;;;;;;;;5012777;28;20425;-72
2021/11/07 15:36:44;;;;;;;11.50;6.43;;;;;;;;;;5024335;28;20212;-66
2021/11/07 15:39:21;;;;;;;15.40;7.53;;;;;;;;;;5025996;28;20424;-73
2021/11/07 15:42:05;;;;;;;10.50;7.10;;;;;;;;;;5015031;28;20448;-69
2021/11/07 15:44:31;;;;;;;13.60;7.57;;;;;;;;;;5012406;28;20835;-69
2021/11/07 15:46:59;;;;;;;15.50;7.10;;;;;;;;;;5012659;28;20923;-66
2021/11/07 15:49:24;;;;;;;12.97;6.20;;;;;;;;;;5031828;28;20400;-63
2021/11/07 15:51:57;;;;;;;13.23;7.60;;;;;;;;;;5032114;28;20945;-70
2021/11/07 15:54:28;;;;;;;15.63;7.60;;;;;;;;;;5032136;28;20166;-63
2021/11/07 15:57:07;;;;;;;13.00;8.03;;;;;;;;;;5013391;28;20402;-73
2021/11/07 16:05:31;;;;;;;11.53;6.57;;;;;;;;;;5024886;28;20413;-76
2021/11/07 16:08:15;;;;;;;12.57;7.13;;;;;;;;;;5031897;28;20438;-77
2021/11/07 16:11:31;;;;;;;13.33;7.13;;;;;;;;;;5015307;28;20491;-75
2021/11/07 16:16:38;;;;;;;16.77;7.20;;;;;;;;;;5012132;28;20816;-69
2021/11/07 16:18:48;;;;;;;13.33;6.90;;;;;;;;;;5010657;28;20430;-76
2021/11/07 16:21:17;;;;;;;13.60;8.23;;;;;;;;;;5016237;28;20456;-68
2021/11/07 16:23:43;;;;;;;12.47;7.43;;;;;;;;;;5031128;28;20455;-77
2021/11/07 16:26:13;;;;;;;14.83;7.50;;;;;;;;;;5028159;28;20419;-63
2021/11/07 16:28:39;;;;;;;12.73;6.87;;;;;;;;;;5024861;28;20891;-69
2021/11/07 16:31:08;;;;;;;18.13;7.43;;;;;;;;;;5027703;28;20413;-76
2021/11/07 16:33:39;;;;;;;9.30;6.27;;;;;;;;;;5031306;28;20780;-77
2021/11/07 16:36:11;;;;;;;14.57;7.00;;;;;;;;;;5030460;28;20836;-78
2021/11/07 16:41:10;;;;;;;11.80;6.63;;;;;;;;;;5029073;28;20518;-75
2021/11/07 16:43:37;;;;;;;12.50;7.57;;;;;;;;;;5030110;28;20404;-79
2021/11/07 16:46:06;;;;;;;15.53;7.80;;;;;;;;;;5021853;28;20401;-69
2021/11/07 16:48:32;;;;;;;13.87;7.90;;;;;;;;;;5022028;28;20407;-68
2021/11/07 16:51:06;;;;;;;12.47;8.00;;;;;;;;;;5019456;28;20451;-66
2021/11/07 16:53:38;;;;;;;12.87;7.57;;;;;;;;;;5022134;28;20438;-65
2021/11/07 16:56:05;;;;;;;15.53;9.30;;;;;;;;;;5018136;28;20406;-63
2021/11/07 16:58:47;;;;;;;11.77;7.03;;;;;;;;;;5030664;28;20392;-75
2021/11/07 17:01:15;;;;;;;12.97;7.13;;;;;;;;;;5027163;28;20543;-67
2021/11/07 17:03:41;;;;;;;13.57;6.73;;;;;;;;;;5016098;28;20405;-73
2021/11/07 17:08:43;;;;;;;12.60;8.13;;;;;;;;;;5021169;28;20918;-71
2021/11/07 17:11:10;;;;;;;11.40;6.33;;;;;;;;;;5026427;28;20928;-63
2021/11/07 17:13:36;;;;;;;11.27;8.23;;;;;;;;;;5021784;28;20436;-72
2021/11/07 17:16:20;;;;;;;13.97;8.67;;;;;;;;;;5025528;28;20419;-64
2021/11/07 17:18:46;;;;;;;12.70;7.63;;;;;;;;;;5025969;28;20627;-61
2021/11/07 17:24:05;;;;;;;15.70;8.00;;;;;;;;;;5030219;28;20404;-74
2021/11/07 17:26:42;;;;;;;14.07;7.73;;;;;;;;;;5024887;28;20455;-68
2021/11/07 17:29:08;;;;;;;12.67;8.03;;;;;;;;;;5024533;28;20474;-62
2021/11/07 17:31:54;;;;;;;16.63;8.00;;;;;;;;;;5030188;28;20423;-74